sensor_id;sensor_type;location;lat;lon;timestamp;pressure;altitude;pressure_sealevel;temperature;humidity
8581;BME280;4328;48.622;9.230;2024-01-15T00:00:50;97022.41;;;-1.82;76.35
8581;BME280;4328;48.622;9.230;2024-01-15T00:03:16;97013.03;;;-1.76;75.97
8581;BME280;4328;48.622;9.230;2024-01-15T00:05:44;97011.25;;;-1.66;75.50
8581;BME280;4328;48.622;9.230;2024-01-15T00:08:11;97000.06;;;-1.69;75.36
8581;BME280;4328;48.622;9.230;2024-01-15T00:10:38;97005.38;;;-1.60;75.03
8581;BME280;4328;48.622;9.230;2024-01-15T00:13:05;96998.94;;;-1.57;74.54
8581;BME280;4328;48.622;9.230;2024-01-15T00:15:32;96990.38;;;-1.41;73.92
8581;BME280;4328;48.622;9.230;2024-01-15T00:17:58;96993.47;;;-1.36;73.25
8581;BME280;4328;48.622;9.230;2024-01-15T00:20:25;96947.31;;;-1.64;72.99
8581;BME280;4328;48.622;9.230;2024-01-15T00:22:53;96996.56;;;-1.31;73.16
8581;BME280;4328;48.622;9.230;2024-01-15T00:25:20;96990.66;;;-1.25;73.10
8581;BME280;4328;48.622;9.230;2024-01-15T00:27:46;96997.38;;;-1.21;72.52
8581;BME280;4328;48.622;9.230;2024-01-15T00:30:13;96990.25;;;-1.21;72.24
8581;BME280;4328;48.622;9.230;2024-01-15T00:32:40;96997.63;;;-1.15;72.22
8581;BME280;4328;48.622;9.230;2024-01-15T00:35:07;96993.16;;;-1.14;72.18
8581;BME280;4328;48.622;9.230;2024-01-15T00:37:33;96995.81;;;-1.14;72.11
8581;BME280;4328;48.622;9.230;2024-01-15T00:40:01;96996.09;;;-1.07;71.67
8581;BME280;4328;48.622;9.230;2024-01-15T00:42:28;96985.59;;;-1.09;71.82
8581;BME280;4328;48.622;9.230;2024-01-15T00:44:54;96987.97;;;-1.06;71.64
8581;BME280;4328;48.622;9.230;2024-01-15T00:47:21;96974.53;;;-1.04;71.50
8581;BME280;4328;48.622;9.230;2024-01-15T00:49:48;96976.19;;;-1.03;71.25
8581;BME280;4328;48.622;9.230;2024-01-15T00:52:14;96984.03;;;-1.02;71.35
8581;BME280;4328;48.622;9.230;2024-01-15T00:54:41;96982.91;;;-0.99;71.38
8581;BME280;4328;48.622;9.230;2024-01-15T00:57:09;96977.63;;;-1.09;71.15
8581;BME280;4328;48.622;9.230;2024-01-15T00:59:35;96902.44;;;-1.67;71.39
8581;BME280;4328;48.622;9.230;2024-01-15T01:02:02;96976.81;;;-1.19;71.53
8581;BME280;4328;48.622;9.230;2024-01-15T01:04:29;96968.41;;;-1.24;71.68
8581;BME280;4328;48.622;9.230;2024-01-15T01:06:55;96967.56;;;-1.25;71.51
8581;BME280;4328;48.622;9.230;2024-01-15T01:09:22;96984.09;;;-1.31;71.67
8581;BME280;4328;48.622;9.230;2024-01-15T01:11:48;96986.91;;;-1.42;71.97
8581;BME280;4328;48.622;9.230;2024-01-15T01:14:16;96985.50;;;-1.36;72.31
8581;BME280;4328;48.622;9.230;2024-01-15T01:16:43;96947.16;;;-1.53;72.20
8581;BME280;4328;48.622;9.230;2024-01-15T01:19:09;96974.81;;;-1.17;71.83
8581;BME280;4328;48.622;9.230;2024-01-15T01:21:36;96963.09;;;-1.24;71.78
8581;BME280;4328;48.622;9.230;2024-01-15T01:24:03;96972.16;;;-1.17;72.03
8581;BME280;4328;48.622;9.230;2024-01-15T01:26:30;96945.59;;;-1.27;71.81
8581;BME280;4328;48.622;9.230;2024-01-15T01:28:57;96972.00;;;-0.96;71.71
8581;BME280;4328;48.622;9.230;2024-01-15T01:31:25;96971.53;;;-0.92;70.98
8581;BME280;4328;48.622;9.230;2024-01-15T01:33:52;96967.81;;;-0.99;71.28
8581;BME280;4328;48.622;9.230;2024-01-15T01:36:18;96922.63;;;-1.28;71.37
8581;BME280;4328;48.622;9.230;2024-01-15T01:38:45;96978.03;;;-1.04;71.36
8581;BME280;4328;48.622;9.230;2024-01-15T01:41:11;96967.53;;;-1.15;71.82
8581;BME280;4328;48.622;9.230;2024-01-15T01:43:38;96965.59;;;-1.23;71.83
8581;BME280;4328;48.622;9.230;2024-01-15T01:46:05;96971.22;;;-1.35;72.22
8581;BME280;4328;48.622;9.230;2024-01-15T01:48:34;96971.25;;;-1.45;72.56
8581;BME280;4328;48.622;9.230;2024-01-15T01:51:02;96966.59;;;-1.53;73.07
8581;BME280;4328;48.622;9.230;2024-01-15T01:53:29;96967.31;;;-1.51;72.95
8581;BME280;4328;48.622;9.230;2024-01-15T01:55:57;96981.31;;;-1.58;73.17
8581;BME280;4328;48.622;9.230;2024-01-15T01:58:25;96972.78;;;-1.62;73.47
8581;BME280;4328;48.622;9.230;2024-01-15T02:00:52;96974.03;;;-1.85;73.34
8581;BME280;4328;48.622;9.230;2024-01-15T02:03:20;96975.44;;;-1.81;73.86
8581;BME280;4328;48.622;9.230;2024-01-15T02:05:49;96972.66;;;-1.79;74.07
8581;BME280;4328;48.622;9.230;2024-01-15T02:08:15;96980.19;;;-1.94;74.48
8581;BME280;4328;48.622;9.230;2024-01-15T02:10:42;96979.59;;;-1.88;74.36
8581;BME280;4328;48.622;9.230;2024-01-15T02:13:09;96938.91;;;-2.17;74.43
8581;BME280;4328;48.622;9.230;2024-01-15T02:15:35;96972.34;;;-2.05;74.96
8581;BME280;4328;48.622;9.230;2024-01-15T02:18:03;96967.72;;;-2.03;75.46
8581;BME280;4328;48.622;9.230;2024-01-15T02:20:31;96969.16;;;-1.90;75.44
8581;BME280;4328;48.622;9.230;2024-01-15T02:23:08;96965.78;;;-1.92;75.21
8581;BME280;4328;48.622;9.230;2024-01-15T02:25:36;96965.47;;;-1.98;75.63
8581;BME280;4328;48.622;9.230;2024-01-15T02:28:04;96945.19;;;-2.19;75.73
8581;BME280;4328;48.622;9.230;2024-01-15T02:30:31;96964.22;;;-2.13;75.78
8581;BME280;4328;48.622;9.230;2024-01-15T02:32:58;96959.72;;;-2.23;76.24
8581;BME280;4328;48.622;9.230;2024-01-15T02:35:24;96949.78;;;-2.30;76.65
8581;BME280;4328;48.622;9.230;2024-01-15T02:37:51;96956.50;;;-2.26;76.72
8581;BME280;4328;48.622;9.230;2024-01-15T02:40:19;96952.63;;;-2.12;77.04
8581;BME280;4328;48.622;9.230;2024-01-15T02:42:45;96950.25;;;-1.96;76.85
8581;BME280;4328;48.622;9.230;2024-01-15T02:45:12;96958.09;;;-1.85;76.81
8581;BME280;4328;48.622;9.230;2024-01-15T02:47:39;96938.09;;;-1.79;76.55
8581;BME280;4328;48.622;9.230;2024-01-15T02:50:06;96946.34;;;-1.63;76.24
8581;BME280;4328;48.622;9.230;2024-01-15T02:52:33;96948.28;;;-1.46;75.67
8581;BME280;4328;48.622;9.230;2024-01-15T02:54:59;96935.97;;;-1.37;75.23
8581;BME280;4328;48.622;9.230;2024-01-15T02:57:27;96935.78;;;-1.26;74.98
8581;BME280;4328;48.622;9.230;2024-01-15T02:59:54;96933.03;;;-1.34;75.14
8581;BME280;4328;48.622;9.230;2024-01-15T03:02:20;96933.03;;;-1.34;74.96
8581;BME280;4328;48.622;9.230;2024-01-15T03:04:47;96940.13;;;-1.25;74.92
8581;BME280;4328;48.622;9.230;2024-01-15T03:07:14;96943.78;;;-1.26;75.02
8581;BME280;4328;48.622;9.230;2024-01-15T03:09:40;96935.53;;;-1.23;75.07
8581;BME280;4328;48.622;9.230;2024-01-15T03:12:07;96910.78;;;-1.33;74.90
8581;BME280;4328;48.622;9.230;2024-01-15T03:14:35;96916.47;;;-1.28;74.92
8581;BME280;4328;48.622;9.230;2024-01-15T03:17:02;96927.22;;;-1.11;74.73
8581;BME280;4328;48.622;9.230;2024-01-15T03:19:29;96927.50;;;-1.14;74.76
8581;BME280;4328;48.622;9.230;2024-01-15T03:21:55;96893.31;;;-1.46;74.88
8581;BME280;4328;48.622;9.230;2024-01-15T03:24:22;96930.31;;;-1.15;74.87
8581;BME280;4328;48.622;9.230;2024-01-15T03:26:49;96929.34;;;-1.14;74.79
8581;BME280;4328;48.622;9.230;2024-01-15T03:29:15;96921.34;;;-1.14;74.86
8581;BME280;4328;48.622;9.230;2024-01-15T03:31:43;96920.50;;;-1.15;74.83
8581;BME280;4328;48.622;9.230;2024-01-15T03:34:10;96913.28;;;-1.22;74.87
8581;BME280;4328;48.622;9.230;2024-01-15T03:36:36;96916.78;;;-1.31;75.12
8581;BME280;4328;48.622;9.230;2024-01-15T03:39:03;96915.81;;;-1.30;75.45
8581;BME280;4328;48.622;9.230;2024-01-15T03:41:29;96911.63;;;-1.33;75.54
8581;BME280;4328;48.622;9.230;2024-01-15T03:43:56;96922.38;;;-1.34;75.72
8581;BME280;4328;48.622;9.230;2024-01-15T03:46:24;96917.47;;;-1.29;75.59
8581;BME280;4328;48.622;9.230;2024-01-15T03:48:52;96905.31;;;-1.41;75.75
8581;BME280;4328;48.622;9.230;2024-01-15T03:51:19;96911.34;;;-1.30;75.54
8581;BME280;4328;48.622;9.230;2024-01-15T03:53:45;96888.97;;;-1.47;75.30
8581;BME280;4328;48.622;9.230;2024-01-15T03:56:12;96915.78;;;-1.21;75.62
8581;BME280;4328;48.622;9.230;2024-01-15T03:58:39;96908.06;;;-1.14;75.50
8581;BME280;4328;48.622;9.230;2024-01-15T04:01:08;96876.59;;;-1.28;75.41
8581;BME280;4328;48.622;9.230;2024-01-15T04:03:35;96903.16;;;-1.09;75.47
8581;BME280;4328;48.622;9.230;2024-01-15T04:06:03;96902.31;;;-1.10;75.52
8581;BME280;4328;48.622;9.230;2024-01-15T04:08:30;96890.56;;;-1.17;75.67
8581;BME280;4328;48.622;9.230;2024-01-15T04:10:57;96902.31;;;-1.10;75.52
8581;BME280;4328;48.622;9.230;2024-01-15T04:13:23;96896.72;;;-1.16;75.66
8581;BME280;4328;48.622;9.230;2024-01-15T04:15:50;96897.56;;;-1.16;76.07
8581;BME280;4328;48.622;9.230;2024-01-15T04:18:16;96889.97;;;-1.01;75.73
8581;BME280;4328;48.622;9.230;2024-01-15T04:20:43;96899.34;;;-0.97;75.85
8581;BME280;4328;48.622;9.230;2024-01-15T04:23:11;96897.47;;;-0.87;75.79
8581;BME280;4328;48.622;9.230;2024-01-15T04:25:38;96895.16;;;-0.72;75.60
8581;BME280;4328;48.622;9.230;2024-01-15T04:28:07;96896.28;;;-0.75;75.74
8581;BME280;4328;48.622;9.230;2024-01-15T04:30:34;96901.34;;;-0.71;75.66
8581;BME280;4328;48.622;9.230;2024-01-15T04:33:01;96866.31;;;-0.77;75.37
8581;BME280;4328;48.622;9.230;2024-01-15T04:35:27;96862.41;;;-0.73;75.08
8581;BME280;4328;48.622;9.230;2024-01-15T04:37:54;96898.25;;;-0.49;74.83
8581;BME280;4328;48.622;9.230;2024-01-15T04:40:22;96901.78;;;-0.49;74.74
8581;BME280;4328;48.622;9.230;2024-01-15T04:42:48;96890.94;;;-0.47;74.68
8581;BME280;4328;48.622;9.230;2024-01-15T04:45:15;96897.28;;;-0.48;74.50
8581;BME280;4328;48.622;9.230;2024-01-15T04:47:43;96888.91;;;-0.53;74.52
8581;BME280;4328;48.622;9.230;2024-01-15T04:50:10;96895.84;;;-0.43;74.43
8581;BME280;4328;48.622;9.230;2024-01-15T04:52:36;96901.16;;;-0.43;74.42
8581;BME280;4328;48.622;9.230;2024-01-15T04:55:03;96908.44;;;-0.45;74.72
8581;BME280;4328;48.622;9.230;2024-01-15T04:57:31;96841.69;;;-0.79;74.90
8581;BME280;4328;48.622;9.230;2024-01-15T04:59:58;96899.75;;;-0.37;74.64
8581;BME280;4328;48.622;9.230;2024-01-15T05:02:24;96898.22;;;-0.40;74.71
8581;BME280;4328;48.622;9.230;2024-01-15T05:04:51;96901.72;;;-0.39;75.11
8581;BME280;4328;48.622;9.230;2024-01-15T05:07:18;96896.69;;;-0.42;75.14
8581;BME280;4328;48.622;9.230;2024-01-15T05:09:44;96903.91;;;-0.34;75.21
8581;BME280;4328;48.622;9.230;2024-01-15T05:12:11;96899.59;;;-0.35;75.01
8581;BME280;4328;48.622;9.230;2024-01-15T05:14:39;96899.03;;;-0.39;75.45
8581;BME280;4328;48.622;9.230;2024-01-15T05:17:05;96896.38;;;-0.39;75.53
8581;BME280;4328;48.622;9.230;2024-01-15T05:19:32;96906.41;;;-0.33;75.41
8581;BME280;4328;48.622;9.230;2024-01-15T05:21:58;96899.97;;;-0.30;75.67
8581;BME280;4328;48.622;9.230;2024-01-15T05:24:25;96903.47;;;-0.30;75.43
8581;BME280;4328;48.622;9.230;2024-01-15T05:26:52;96908.66;;;-0.28;75.49
8581;BME280;4328;48.622;9.230;2024-01-15T05:29:18;96895.53;;;-0.40;75.36
8581;BME280;4328;48.622;9.230;2024-01-15T05:31:46;96894.94;;;-0.33;75.44
8581;BME280;4328;48.622;9.230;2024-01-15T05:34:13;96868.66;;;-0.46;75.49
8581;BME280;4328;48.622;9.230;2024-01-15T05:36:40;96905.84;;;-0.27;75.60
8581;BME280;4328;48.622;9.230;2024-01-15T05:39:06;96908.38;;;-0.35;75.73
8581;BME280;4328;48.622;9.230;2024-01-15T05:41:33;96901.50;;;-0.28;75.85
8581;BME280;4328;48.622;9.230;2024-01-15T05:44:00;96896.16;;;-0.28;75.59
8581;BME280;4328;48.622;9.230;2024-01-15T05:46:26;96896.16;;;-0.28;75.60
8581;BME280;4328;48.622;9.230;2024-01-15T05:48:54;96851.00;;;-0.47;75.38
8581;BME280;4328;48.622;9.230;2024-01-15T05:51:21;96887.56;;;-0.22;75.52
8581;BME280;4328;48.622;9.230;2024-01-15T05:53:47;96887.06;;;-0.25;75.30
8581;BME280;4328;48.622;9.230;2024-01-15T05:56:14;96896.03;;;-0.26;75.78
8581;BME280;4328;48.622;9.230;2024-01-15T05:58:41;96863.88;;;-0.43;75.79
8581;BME280;4328;48.622;9.230;2024-01-15T06:01:07;96895.34;;;-0.28;76.16
8581;BME280;4328;48.622;9.230;2024-01-15T06:03:34;96889.56;;;-0.24;75.78
8581;BME280;4328;48.622;9.230;2024-01-15T06:06:02;96880.25;;;-0.20;75.87
8581;BME280;4328;48.622;9.230;2024-01-15T06:08:29;96879.56;;;-0.22;75.88
8581;BME280;4328;48.622;9.230;2024-01-15T06:10:56;96874.84;;;-0.10;75.85
8581;BME280;4328;48.622;9.230;2024-01-15T06:13:22;96874.78;;;-0.18;75.91
8581;BME280;4328;48.622;9.230;2024-01-15T06:15:49;96866.41;;;-0.23;76.64
8581;BME280;4328;48.622;9.230;2024-01-15T06:18:16;96875.94;;;-0.21;76.43
8581;BME280;4328;48.622;9.230;2024-01-15T06:20:42;96843.81;;;-0.37;76.56
8581;BME280;4328;48.622;9.230;2024-01-15T06:23:10;96859.78;;;-0.19;76.53
8581;BME280;4328;48.622;9.230;2024-01-15T06:25:37;96860.09;;;-0.22;76.54
8581;BME280;4328;48.622;9.230;2024-01-15T06:28:04;96857.44;;;-0.22;76.59
8581;BME280;4328;48.622;9.230;2024-01-15T06:30:31;96857.75;;;-0.25;76.60
8581;BME280;4328;48.622;9.230;2024-01-15T06:32:57;96847.38;;;-0.28;76.38
8581;BME280;4328;48.622;9.230;2024-01-15T06:35:24;96849.50;;;-0.32;76.57
8581;BME280;4328;48.622;9.230;2024-01-15T06:37:50;96838.03;;;-0.32;76.70
8581;BME280;4328;48.622;9.230;2024-01-15T06:40:18;96837.44;;;-0.26;76.38
8581;BME280;4328;48.622;9.230;2024-01-15T06:42:45;96840.53;;;-0.31;76.38
8581;BME280;4328;48.622;9.230;2024-01-15T06:45:11;96835.91;;;-0.29;76.51
8581;BME280;4328;48.622;9.230;2024-01-15T06:47:38;96833.94;;;-0.27;76.07
8581;BME280;4328;48.622;9.230;2024-01-15T06:50:05;96841.38;;;-0.30;75.97
8581;BME280;4328;48.622;9.230;2024-01-15T06:52:32;96814.19;;;-0.34;75.36
8581;BME280;4328;48.622;9.230;2024-01-15T06:54:58;96817.25;;;-0.29;75.17
8581;BME280;4328;48.622;9.230;2024-01-15T06:57:26;96827.97;;;-0.21;74.71
8581;BME280;4328;48.622;9.230;2024-01-15T06:59:53;96814.06;;;-0.15;74.33
8581;BME280;4328;48.622;9.230;2024-01-15T07:02:20;96810.72;;;-0.17;74.17
8581;BME280;4328;48.622;9.230;2024-01-15T07:04:46;96814.91;;;-0.14;73.91
8581;BME280;4328;48.622;9.230;2024-01-15T07:07:13;96809.03;;;-0.18;73.75
8581;BME280;4328;48.622;9.230;2024-01-15T07:09:40;96799.75;;;-0.14;73.38
8581;BME280;4328;48.622;9.230;2024-01-15T07:12:07;96799.44;;;-0.11;73.38
8581;BME280;4328;48.622;9.230;2024-01-15T07:14:35;96800.06;;;-0.17;73.22
8581;BME280;4328;48.622;9.230;2024-01-15T07:17:02;96805.75;;;-0.12;73.02
8581;BME280;4328;48.622;9.230;2024-01-15T07:19:28;96810.47;;;-0.06;73.06
8581;BME280;4328;48.622;9.230;2024-01-15T07:21:55;96820.75;;;-0.11;73.14
8581;BME280;4328;48.622;9.230;2024-01-15T07:24:21;96824.09;;;-0.09;72.88
8581;BME280;4328;48.622;9.230;2024-01-15T07:26:48;96823.09;;;-0.08;73.09
8581;BME280;4328;48.622;9.230;2024-01-15T07:29:14;96824.63;;;-0.05;73.32
8581;BME280;4328;48.622;9.230;2024-01-15T07:31:47;96829.88;;;0.05;72.94
8581;BME280;4328;48.622;9.230;2024-01-15T07:34:14;96827.22;;;0.05;73.02
8581;BME280;4328;48.622;9.230;2024-01-15T07:36:41;96837.41;;;0.09;72.80
8581;BME280;4328;48.622;9.230;2024-01-15T07:39:07;96824.78;;;0.11;72.43
8581;BME280;4328;48.622;9.230;2024-01-15T07:41:34;96811.28;;;0.13;72.45
8581;BME280;4328;48.622;9.230;2024-01-15T07:44:01;96825.97;;;0.17;72.00
8581;BME280;4328;48.622;9.230;2024-01-15T07:46:28;96809.69;;;0.02;71.78
8581;BME280;4328;48.622;9.230;2024-01-15T07:48:56;96818.03;;;0.25;71.68
8581;BME280;4328;48.622;9.230;2024-01-15T07:51:23;96816.38;;;0.24;71.35
8581;BME280;4328;48.622;9.230;2024-01-15T07:53:49;96772.09;;;0.05;71.24
8581;BME280;4328;48.622;9.230;2024-01-15T07:56:16;96804.56;;;0.26;70.79
8581;BME280;4328;48.622;9.230;2024-01-15T07:58:43;96812.78;;;0.33;70.85
8581;BME280;4328;48.622;9.230;2024-01-15T08:01:09;96803.13;;;0.32;69.84
8581;BME280;4328;48.622;9.230;2024-01-15T08:03:36;96812.44;;;0.36;69.85
8581;BME280;4328;48.622;9.230;2024-01-15T08:06:05;96814.19;;;0.45;70.15
8581;BME280;4328;48.622;9.230;2024-01-15T08:08:32;96817.72;;;0.46;69.69
8581;BME280;4328;48.622;9.230;2024-01-15T08:10:58;96812.84;;;0.41;69.20
8581;BME280;4328;48.622;9.230;2024-01-15T08:13:26;96821.41;;;0.53;68.74
8581;BME280;4328;48.622;9.230;2024-01-15T08:15:53;96823.81;;;0.64;68.70
8581;BME280;4328;48.622;9.230;2024-01-15T08:18:20;96822.94;;;0.55;68.31
8581;BME280;4328;48.622;9.230;2024-01-15T08:20:47;96817.28;;;0.58;68.31
8581;BME280;4328;48.622;9.230;2024-01-15T08:23:14;96815.50;;;0.67;68.15
8581;BME280;4328;48.622;9.230;2024-01-15T08:25:41;96808.38;;;0.76;67.56
8581;BME280;4328;48.622;9.230;2024-01-15T08:28:08;96804.91;;;0.83;67.27
8581;BME280;4328;48.622;9.230;2024-01-15T08:30:34;96808.06;;;0.79;66.71
8581;BME280;4328;48.622;9.230;2024-01-15T08:33:01;96806.69;;;0.75;66.83
8581;BME280;4328;48.622;9.230;2024-01-15T08:35:29;96779.63;;;0.61;67.23
8581;BME280;4328;48.622;9.230;2024-01-15T08:37:55;96811.06;;;0.84;66.68
8581;BME280;4328;48.622;9.230;2024-01-15T08:40:25;96812.97;;;0.91;66.63
8581;BME280;4328;48.622;9.230;2024-01-15T08:42:51;96809.16;;;0.94;66.18
8581;BME280;4328;48.622;9.230;2024-01-15T08:45:18;96803.84;;;1.02;66.10
8581;BME280;4328;48.622;9.230;2024-01-15T08:47:45;96800.50;;;1.00;65.62
8581;BME280;4328;48.622;9.230;2024-01-15T08:50:12;96809.50;;;1.07;65.22
8581;BME280;4328;48.622;9.230;2024-01-15T08:52:38;96815.59;;;1.17;64.66
8581;BME280;4328;48.622;9.230;2024-01-15T08:55:05;96815.94;;;1.30;65.16
8581;BME280;4328;48.622;9.230;2024-01-15T08:57:33;96817.00;;;1.37;63.98
8581;BME280;4328;48.622;9.230;2024-01-15T09:00:00;96822.50;;;1.44;63.89
8581;BME280;4328;48.622;9.230;2024-01-15T09:02:27;96790.06;;;1.23;63.08
8581;BME280;4328;48.622;9.230;2024-01-15T09:04:54;96813.34;;;1.55;63.13
8581;BME280;4328;48.622;9.230;2024-01-15T09:07:20;96815.69;;;1.58;63.28
8581;BME280;4328;48.622;9.230;2024-01-15T09:09:47;96829.41;;;1.63;63.32
8581;BME280;4328;48.622;9.230;2024-01-15T09:20:20;96534.69;;;-0.18;62.61
8581;BME280;4328;48.622;9.230;2024-01-15T09:22:48;96500.06;;;-0.18;62.73
8581;BME280;4328;48.622;9.230;2024-01-15T09:25:19;96517.06;;;-0.11;62.18
8581;BME280;4328;48.622;9.230;2024-01-15T09:27:51;96751.84;;;1.22;62.05
8581;BME280;4328;48.622;9.230;2024-01-15T09:30:46;96483.09;;;-0.17;61.70
8581;BME280;4328;48.622;9.230;2024-01-15T09:33:26;96784.03;;;1.87;61.41
8581;BME280;4328;48.622;9.230;2024-01-15T09:36:08;96785.53;;;1.98;61.36
8581;BME280;4328;48.622;9.230;2024-01-15T09:38:40;96491.66;;;0.03;61.21
8581;BME280;4328;48.622;9.230;2024-01-15T09:41:13;96469.03;;;0.15;61.09
8581;BME280;4328;48.622;9.230;2024-01-15T09:43:47;96509.53;;;0.27;60.64
8581;BME280;4328;48.622;9.230;2024-01-15T09:46:22;96775.00;;;2.21;60.60
8581;BME280;4328;48.622;9.230;2024-01-15T09:48:51;96754.78;;;2.18;60.55
8581;BME280;4328;48.622;9.230;2024-01-15T09:51:25;96462.25;;;0.45;59.86
8581;BME280;4328;48.622;9.230;2024-01-15T09:53:59;96516.47;;;0.70;59.79
8581;BME280;4328;48.622;9.230;2024-01-15T09:56:27;96601.69;;;1.53;59.15
8581;BME280;4328;48.622;9.230;2024-01-15T09:58:55;96464.75;;;0.87;59.05
8581;BME280;4328;48.622;9.230;2024-01-15T10:01:24;96440.25;;;0.76;59.13
8581;BME280;4328;48.622;9.230;2024-01-15T10:03:54;96747.78;;;2.80;58.64
8581;BME280;4328;48.622;9.230;2024-01-15T10:06:27;96775.41;;;2.73;58.25
8581;BME280;4328;48.622;9.230;2024-01-15T10:08:58;96472.59;;;0.89;58.68
8581;BME280;4328;48.622;9.230;2024-01-15T10:11:46;96592.47;;;1.71;58.44
8581;BME280;4328;48.622;9.230;2024-01-15T10:14:25;96475.75;;;1.08;58.26
8581;BME280;4328;48.622;9.230;2024-01-15T10:17:12;96461.09;;;1.04;58.16
8581;BME280;4328;48.622;9.230;2024-01-15T10:19:45;96470.41;;;1.08;57.88
8581;BME280;4328;48.622;9.230;2024-01-15T10:22:16;96476.75;;;1.16;58.43
8581;BME280;4328;48.622;9.230;2024-01-15T10:24:45;96571.44;;;1.68;58.24
8581;BME280;4328;48.622;9.230;2024-01-15T10:27:21;96692.09;;;2.12;58.47
8581;BME280;4328;48.622;9.230;2024-01-15T10:29:48;96645.31;;;2.16;58.67
8581;BME280;4328;48.622;9.230;2024-01-15T10:32:18;96449.41;;;0.89;58.59
8581;BME280;4328;48.622;9.230;2024-01-15T10:34:52;96410.25;;;0.49;58.49
8581;BME280;4328;48.622;9.230;2024-01-15T10:37:25;96729.44;;;2.69;58.93
8581;BME280;4328;48.622;9.230;2024-01-15T10:40:02;96453.25;;;0.87;58.62
8581;BME280;4328;48.622;9.230;2024-01-15T10:42:32;96412.25;;;0.71;58.42
8581;BME280;4328;48.622;9.230;2024-01-15T10:45:00;96559.97;;;1.52;58.47
8581;BME280;4328;48.622;9.230;2024-01-15T10:47:29;96475.25;;;0.97;58.72
8581;BME280;4328;48.622;9.230;2024-01-15T10:49:58;96451.25;;;0.89;59.16
8581;BME280;4328;48.622;9.230;2024-01-15T10:52:30;96447.41;;;0.91;58.96
8581;BME280;4328;48.622;9.230;2024-01-15T10:55:02;96433.22;;;1.15;58.59
8581;BME280;4328;48.622;9.230;2024-01-15T10:57:30;96442.22;;;1.14;58.58
8581;BME280;4328;48.622;9.230;2024-01-15T10:59:58;96442.56;;;1.11;58.18
8581;BME280;4328;48.622;9.230;2024-01-15T11:02:29;96424.84;;;1.18;58.32
8581;BME280;4328;48.622;9.230;2024-01-15T11:05:11;96567.25;;;1.82;58.53
8581;BME280;4328;48.622;9.230;2024-01-15T11:07:41;96431.38;;;1.16;58.21
8581;BME280;4328;48.622;9.230;2024-01-15T11:10:38;96459.34;;;1.36;58.53
8581;BME280;4328;48.622;9.230;2024-01-15T11:13:19;96422.38;;;1.00;58.66
8581;BME280;4328;48.622;9.230;2024-01-15T11:15:58;96432.91;;;0.94;59.33
8581;BME280;4328;48.622;9.230;2024-01-15T11:18:40;96450.59;;;1.03;59.64
8581;BME280;4328;48.622;9.230;2024-01-15T11:21:21;96455.59;;;0.90;59.57
8581;BME280;4328;48.622;9.230;2024-01-15T11:23:55;96491.56;;;1.26;60.54
8581;BME280;4328;48.622;9.230;2024-01-15T11:26:32;96416.25;;;0.51;60.79
8581;BME280;4328;48.622;9.230;2024-01-15T11:29:01;96441.94;;;0.52;61.50
8581;BME280;4328;48.622;9.230;2024-01-15T11:32:04;96700.09;;;2.29;62.01
8581;BME280;4328;48.622;9.230;2024-01-15T11:34:51;96696.78;;;2.35;62.19
8581;BME280;4328;48.622;9.230;2024-01-15T11:37:24;96516.94;;;1.38;62.16
8581;BME280;4328;48.622;9.230;2024-01-15T11:39:56;96387.41;;;0.63;61.82
8581;BME280;4328;48.622;9.230;2024-01-15T11:42:30;96676.03;;;2.29;62.60
8581;BME280;4328;48.622;9.230;2024-01-15T11:45:02;96391.94;;;0.46;62.20
8581;BME280;4328;48.622;9.230;2024-01-15T11:50:45;96406.25;;;0.61;62.80
8581;BME280;4328;48.622;9.230;2024-01-15T11:53:36;96374.75;;;0.49;63.01
8581;BME280;4328;48.622;9.230;2024-01-15T11:56:42;96422.09;;;0.79;62.46
8581;BME280;4328;48.622;9.230;2024-01-15T11:59:16;96388.09;;;0.81;62.31
8581;BME280;4328;48.622;9.230;2024-01-15T12:01:47;96547.91;;;1.56;63.51
8581;BME280;4328;48.622;9.230;2024-01-15T12:04:23;96391.94;;;0.30;65.45
8581;BME280;4328;48.622;9.230;2024-01-15T12:06:55;96401.59;;;0.39;66.97
8581;BME280;4328;48.622;9.230;2024-01-15T12:09:23;96453.59;;;0.51;67.91
8581;BME280;4328;48.622;9.230;2024-01-15T12:12:12;96493.28;;;0.70;68.18
8581;BME280;4328;48.622;9.230;2024-01-15T12:14:51;96386.59;;;0.06;69.25
8581;BME280;4328;48.622;9.230;2024-01-15T12:20:46;96433.44;;;0.65;69.46
8581;BME280;4328;48.622;9.230;2024-01-15T12:23:34;96449.94;;;0.68;69.89
8581;BME280;4328;48.622;9.230;2024-01-15T12:26:05;96723.66;;;2.41;70.74
8581;BME280;4328;48.622;9.230;2024-01-15T12:28:39;96607.50;;;1.72;71.29
8581;BME280;4328;48.622;9.230;2024-01-15T12:31:08;96608.88;;;1.36;72.34
8581;BME280;4328;48.622;9.230;2024-01-15T12:33:57;96716.69;;;2.24;72.89
8581;BME280;4328;48.622;9.230;2024-01-15T12:36:30;96420.44;;;0.54;73.45
8581;BME280;4328;48.622;9.230;2024-01-15T12:39:03;96709.47;;;2.33;73.74
8581;BME280;4328;48.622;9.230;2024-01-15T12:41:35;96433.09;;;0.52;73.47
8581;BME280;4328;48.622;9.230;2024-01-15T12:44:06;96529.13;;;1.17;72.93
8581;BME280;4328;48.622;9.230;2024-01-15T12:46:34;96708.69;;;2.08;73.06
8581;BME280;4328;48.622;9.230;2024-01-15T12:49:04;96429.41;;;0.20;73.66
8581;BME280;4328;48.622;9.230;2024-01-15T12:51:34;96419.25;;;0.32;73.85
8581;BME280;4328;48.622;9.230;2024-01-15T12:54:04;96438.91;;;0.23;74.48
8581;BME280;4328;48.622;9.230;2024-01-15T12:56:31;96622.88;;;1.22;75.40
8581;BME280;4328;48.622;9.230;2024-01-15T12:59:00;96428.53;;;0.04;75.91
8581;BME280;4328;48.622;9.230;2024-01-15T13:01:32;96412.69;;;-0.14;76.68
8581;BME280;4328;48.622;9.230;2024-01-15T13:04:01;96453.66;;;-0.07;77.08
8581;BME280;4328;48.622;9.230;2024-01-15T13:06:29;96441.31;;;-0.24;78.16
8581;BME280;4328;48.622;9.230;2024-01-15T13:08:58;96450.00;;;0.02;78.87
8581;BME280;4328;48.622;9.230;2024-01-15T13:11:26;96549.78;;;0.74;78.60
8581;BME280;4328;48.622;9.230;2024-01-15T13:13:54;96725.72;;;1.83;79.50
8581;BME280;4328;48.622;9.230;2024-01-15T13:16:28;96473.53;;;0.15;79.37
8581;BME280;4328;48.622;9.230;2024-01-15T13:18:58;96468.88;;;0.25;80.03
8581;BME280;4328;48.622;9.230;2024-01-15T13:21:32;96578.66;;;0.87;79.76
8581;BME280;4328;48.622;9.230;2024-01-15T13:24:03;96386.38;;;-0.25;79.96
8581;BME280;4328;48.622;9.230;2024-01-15T13:26:31;96444.16;;;-0.10;80.36
8581;BME280;4328;48.622;9.230;2024-01-15T13:29:15;96455.47;;;-0.16;80.82
8581;BME280;4328;48.622;9.230;2024-01-15T13:31:46;96580.94;;;0.73;81.70
8581;BME280;4328;48.622;9.230;2024-01-15T13:34:28;96434.47;;;-0.27;81.64
8581;BME280;4328;48.622;9.230;2024-01-15T13:36:57;96487.44;;;-0.08;81.82
8581;BME280;4328;48.622;9.230;2024-01-15T13:39:26;96449.59;;;-0.35;82.56
8581;BME280;4328;48.622;9.230;2024-01-15T13:41:59;96462.09;;;-0.28;82.74
8581;BME280;4328;48.622;9.230;2024-01-15T13:44:30;96499.69;;;-0.31;83.90
8581;BME280;4328;48.622;9.230;2024-01-15T13:47:14;96766.56;;;1.34;84.24
8581;BME280;4328;48.622;9.230;2024-01-15T13:49:51;96612.72;;;0.51;84.99
8581;BME280;4328;48.622;9.230;2024-01-15T13:52:21;96448.16;;;-0.56;85.37